Time;durP1;ratioP1;P1;durP2;ratioP2;P2;SDS_P1;SDS_P2;PMS_P1;PMS_P2;Temp;Humidity;BMP_temperature;BMP_pressure;BME280_temperature;BME280_humidity;BME280_pressure;Samples;Min_cycle;Max_cycle;Signal;HPM_P1;HPM_P2
2022/03/04 00:01:51;;;;;;;23.48;13.35;;;1.30;99.90;;;;;;4996272;28;20103;-86
2022/03/04 00:04:16;;;;;;;26.83;13.88;;;1.30;99.90;;;;;;4996304;28;20481;-86
2022/03/04 00:06:42;;;;;;;30.63;14.60;;;1.40;99.90;;;;;;4996487;28;20470;-86
2022/03/04 00:09:08;;;;;;;24.63;13.82;;;1.30;99.90;;;;;;4995889;28;20052;-86
2022/03/04 00:11:34;;;;;;;25.63;13.75;;;1.30;99.90;;;;;;4996023;28;20508;-86
2022/03/04 00:14:00;;;;;;;27.88;13.85;;;1.30;99.90;;;;;;4996120;28;20042;-86
2022/03/04 00:16:26;;;;;;;29.05;14.85;;;1.30;99.90;;;;;;4995899;28;20045;-86
2022/03/04 00:19:06;;;;;;;27.60;13.90;;;1.30;99.90;;;;;;4996046;28;20034;-86
2022/03/04 00:21:37;;;;;;;28.38;14.65;;;1.20;99.90;;;;;;4997179;28;20077;-86
2022/03/04 00:24:04;;;;;;;29.55;13.65;;;1.20;99.90;;;;;;4996096;28;20052;-86
2022/03/04 00:26:30;;;;;;;23.95;13.05;;;1.30;99.90;;;;;;4996186;28;20397;-86
2022/03/04 00:28:56;;;;;;;25.95;13.35;;;1.20;99.90;;;;;;4996235;28;20058;-86
2022/03/04 00:31:22;;;;;;;26.05;12.30;;;1.20;99.90;;;;;;4995899;28;20041;-86
2022/03/04 00:33:48;;;;;;;25.40;13.30;;;1.20;99.90;;;;;;4995953;28;20044;-86
2022/03/04 00:36:14;;;;;;;29.40;15.18;;;1.20;99.90;;;;;;4996135;28;20054;-86
2022/03/04 00:38:39;;;;;;;28.75;14.20;;;1.20;99.90;;;;;;4995829;28;20038;-86
2022/03/04 00:41:05;;;;;;;27.08;13.27;;;1.10;99.90;;;;;;4995898;28;20053;-86
2022/03/04 00:43:31;;;;;;;27.35;14.70;;;1.10;99.90;;;;;;4997430;28;20042;-86
2022/03/04 00:45:57;;;;;;;28.02;14.68;;;1.10;99.90;;;;;;4999478;28;20535;-86
2022/03/04 00:48:22;;;;;;;25.45;14.73;;;1.10;99.90;;;;;;4999838;28;20060;-86
2022/03/04 00:50:48;;;;;;;28.73;13.40;;;1.10;99.90;;;;;;4999676;28;20045;-86
2022/03/04 00:53:13;;;;;;;22.85;12.25;;;1.10;99.90;;;;;;4999482;28;20121;-86
2022/03/04 00:55:39;;;;;;;30.35;14.75;;;1.10;99.90;;;;;;4999439;28;20133;-86
2022/03/04 00:58:06;;;;;;;27.70;14.38;;;1.00;99.90;;;;;;4999641;28;20046;-86
2022/03/04 01:00:33;;;;;;;25.90;13.82;;;1.00;99.90;;;;;;4999383;28;20093;-86
2022/03/04 01:02:59;;;;;;;26.83;13.45;;;1.00;99.90;;;;;;4999610;28;20046;-86
2022/03/04 01:05:25;;;;;;;25.08;13.18;;;1.00;99.90;;;;;;5016727;28;20397;-86
2022/03/04 01:07:50;;;;;;;24.33;12.80;;;1.00;99.90;;;;;;4999444;28;20034;-86
2022/03/04 01:10:16;;;;;;;26.70;14.60;;;1.00;99.90;;;;;;4999110;28;20442;-86
2022/03/04 01:12:42;;;;;;;23.02;12.77;;;1.00;99.90;;;;;;4999351;28;20042;-86
2022/03/04 01:15:08;;;;;;;26.42;13.38;;;0.90;99.90;;;;;;4999432;28;20046;-86
2022/03/04 01:17:34;;;;;;;28.27;12.63;;;0.90;99.90;;;;;;4999015;28;20052;-86
2022/03/04 01:20:00;;;;;;;28.75;14.13;;;1.00;99.90;;;;;;4999186;28;20049;-86
2022/03/04 01:22:26;;;;;;;26.08;13.38;;;1.00;99.90;;;;;;4999143;28;20061;-86
2022/03/04 01:24:53;;;;;;;26.55;13.38;;;0.90;99.90;;;;;;4999211;28;20053;-86
2022/03/04 01:27:19;;;;;;;26.55;13.80;;;0.90;99.90;;;;;;4999069;28;20050;-86
2022/03/04 01:29:45;;;;;;;22.02;12.38;;;0.90;99.90;;;;;;4998773;28;20393;-86
2022/03/04 01:32:11;;;;;;;26.33;12.60;;;0.90;99.90;;;;;;4998531;28;20422;-86
2022/03/04 01:34:37;;;;;;;20.88;12.40;;;0.90;99.90;;;;;;4998885;28;20513;-86
2022/03/04 01:37:03;;;;;;;26.95;12.73;;;0.90;99.90;;;;;;4998585;28;20046;-86
2022/03/04 01:39:29;;;;;;;24.67;13.48;;;0.90;99.90;;;;;;4998842;28;20395;-86
2022/03/04 01:41:55;;;;;;;25.48;13.45;;;0.90;99.90;;;;;;4998551;28;20493;-86
2022/03/04 01:44:21;;;;;;;23.40;12.60;;;0.80;99.90;;;;;;4998668;28;20054;-86
2022/03/04 01:46:46;;;;;;;27.77;14.18;;;0.80;99.90;;;;;;4998402;28;20061;-85
2022/03/04 01:49:12;;;;;;;27.05;12.57;;;0.80;99.90;;;;;;4998397;28;20096;-85
2022/03/04 01:51:37;;;;;;;27.52;12.98;;;0.80;99.90;;;;;;4998305;28;20093;-85
2022/03/04 01:54:03;;;;;;;27.00;12.30;;;0.80;99.90;;;;;;4998336;28;20041;-86
2022/03/04 01:56:29;;;;;;;25.02;11.95;;;0.80;99.90;;;;;;4998279;28;20084;-85
2022/03/04 01:58:55;;;;;;;23.90;12.13;;;0.90;99.90;;;;;;4998645;28;20053;-86
2022/03/04 02:01:21;;;;;;;27.33;11.75;;;0.80;99.90;;;;;;4998561;28;20038;-86
2022/03/04 02:03:47;;;;;;;26.85;13.13;;;0.80;99.90;;;;;;4998369;28;20520;-86
2022/03/04 02:06:13;;;;;;;25.42;13.00;;;0.80;99.90;;;;;;4998124;28;20049;-85
2022/03/04 02:08:38;;;;;;;25.08;13.75;;;0.80;99.90;;;;;;4998317;28;20046;-86
2022/03/04 02:11:04;;;;;;;22.90;11.93;;;0.70;99.90;;;;;;4998024;28;20073;-86
2022/03/04 02:13:30;;;;;;;25.92;13.68;;;0.70;99.90;;;;;;4998012;28;20038;-86
2022/03/04 02:15:55;;;;;;;24.35;13.23;;;0.70;99.90;;;;;;4998034;28;20045;-86
2022/03/04 02:18:21;;;;;;;24.13;12.43;;;0.70;99.90;;;;;;4997872;28;20100;-86
2022/03/04 02:20:51;;;;;;;27.13;12.40;;;0.70;99.90;;;;;;4997834;28;20053;-86
2022/03/04 02:23:18;;;;;;;29.52;13.23;;;0.70;99.90;;;;;;4997734;28;20038;-85
2022/03/04 02:25:48;;;;;;;24.40;12.82;;;0.70;99.90;;;;;;4997953;28;20049;-86
2022/03/04 02:28:14;;;;;;;27.55;12.73;;;0.60;99.90;;;;;;4997816;28;20125;-85
2022/03/04 02:30:40;;;;;;;31.60;15.05;;;0.60;99.90;;;;;;4997913;28;20152;-85
2022/03/04 02:33:07;;;;;;;24.67;13.27;;;0.50;99.90;;;;;;4997504;28;20468;-86
2022/03/04 02:35:34;;;;;;;24.95;12.20;;;0.60;99.90;;;;;;4997506;28;20044;-86
2022/03/04 02:38:00;;;;;;;25.92;13.48;;;0.50;99.90;;;;;;4997717;28;20042;-85
2022/03/04 02:40:26;;;;;;;27.83;12.80;;;0.50;99.90;;;;;;4997614;28;20053;-86
2022/03/04 02:42:52;;;;;;;28.38;13.57;;;0.50;99.90;;;;;;4997509;28;20050;-86
2022/03/04 02:45:18;;;;;;;24.17;12.93;;;0.50;99.90;;;;;;4997259;28;20049;-85
2022/03/04 02:47:44;;;;;;;28.83;14.98;;;0.50;99.90;;;;;;4997230;28;20119;-86
2022/03/04 02:50:10;;;;;;;28.63;14.43;;;0.50;99.90;;;;;;4997875;28;20551;-85
2022/03/04 02:52:36;;;;;;;24.58;12.43;;;0.50;99.90;;;;;;4997541;28;20053;-86
2022/03/04 02:55:02;;;;;;;27.58;13.00;;;0.40;99.90;;;;;;4997079;28;20052;-85
2022/03/04 02:57:28;;;;;;;24.58;12.43;;;0.40;99.90;;;;;;4997438;28;20049;-85
2022/03/04 02:59:53;;;;;;;25.30;12.63;;;0.40;99.90;;;;;;4997484;28;20065;-85
2022/03/04 03:02:19;;;;;;;24.23;12.73;;;0.40;99.90;;;;;;4997295;28;20392;-85
2022/03/04 03:04:45;;;;;;;23.55;12.07;;;0.40;99.90;;;;;;4997097;28;20096;-86
2022/03/04 03:07:10;;;;;;;26.42;13.50;;;0.40;99.90;;;;;;4996567;28;20088;-86
2022/03/04 03:09:36;;;;;;;22.50;13.00;;;0.40;99.90;;;;;;4997271;28;20053;-86
2022/03/04 03:45:11;;;;;;;22.13;10.75;;;0.20;99.90;;;;;;5013656;28;20443;-85
2022/03/04 03:47:39;;;;;;;22.80;10.93;;;0.20;99.90;;;;;;4996340;28;20046;-85
2022/03/04 03:50:07;;;;;;;21.80;11.43;;;0.20;99.90;;;;;;4996221;28;20473;-85
2022/03/04 03:52:32;;;;;;;22.98;11.43;;;0.20;99.90;;;;;;4996261;28;20061;-85
2022/03/04 03:54:58;;;;;;;22.98;11.18;;;0.20;99.90;;;;;;4996346;28;20038;-85
2022/03/04 03:57:25;;;;;;;24.55;11.45;;;0.10;99.90;;;;;;4996599;28;20135;-85
2022/03/04 03:59:51;;;;;;;26.02;11.50;;;0.10;99.90;;;;;;4996142;28;20046;-85
2022/03/04 04:47:33;;;;;;;26.17;11.40;;;-0.20;99.90;;;;;;5013633;28;20409;-84
2022/03/04 04:49:58;;;;;;;25.75;11.00;;;-0.30;99.90;;;;;;4979973;28;20046;-85
2022/03/04 04:52:24;;;;;;;27.05;12.48;;;-0.30;99.90;;;;;;4980089;28;20050;-85
2022/03/04 04:54:50;;;;;;;25.38;14.07;;;-0.20;99.90;;;;;;4980165;28;20081;-85
2022/03/04 04:57:15;;;;;;;24.90;11.65;;;-0.20;99.90;;;;;;4980122;28;20078;-85
2022/03/04 04:59:41;;;;;;;27.65;13.07;;;-0.30;99.90;;;;;;4979860;28;20057;-85
2022/03/04 05:09:29;;;;;;;29.30;12.40;;;-0.30;99.90;;;;;;4997671;28;20040;-85
2022/03/04 05:11:54;;;;;;;25.83;12.05;;;-0.40;99.90;;;;;;4979430;28;20137;-85
2022/03/04 05:14:20;;;;;;;27.27;12.93;;;-0.40;99.90;;;;;;4979691;28;20148;-85
2022/03/04 05:16:46;;;;;;;28.17;13.45;;;-0.40;99.90;;;;;;4979610;28;20045;-85
2022/03/04 05:19:11;;;;;;;25.92;12.63;;;-0.40;99.90;;;;;;4979540;28;20042;-85
2022/03/04 05:21:37;;;;;;;27.80;12.68;;;-0.50;99.90;;;;;;4979296;28;20047;-85
2022/03/04 05:24:04;;;;;;;29.75;12.80;;;-0.50;99.90;;;;;;4979558;28;20046;-84
2022/03/04 05:26:32;;;;;;;29.25;14.68;;;-0.50;99.90;;;;;;4979635;28;20121;-84
2022/03/04 05:28:59;;;;;;;30.33;14.68;;;-0.60;99.90;;;;;;4979243;28;20042;-84
2022/03/04 05:31:25;;;;;;;29.88;13.93;;;-0.50;99.90;;;;;;4996961;28;20125;-84
2022/03/04 05:33:51;;;;;;;34.65;13.60;;;-0.50;99.90;;;;;;4979623;28;20496;-84
2022/03/04 05:36:18;;;;;;;32.78;14.40;;;-0.60;99.90;;;;;;4979679;28;20046;-85
2022/03/04 05:38:43;;;;;;;29.48;12.85;;;-0.60;99.90;;;;;;4979188;28;20038;-85
2022/03/04 05:41:09;;;;;;;35.03;15.38;;;-0.60;99.90;;;;;;4996622;28;20057;-85
2022/03/04 05:43:35;;;;;;;30.25;14.52;;;-0.70;99.90;;;;;;4996841;28;20050;-85
2022/03/04 05:46:01;;;;;;;29.17;13.05;;;-0.70;99.90;;;;;;4996548;28;20109;-85
2022/03/04 05:48:27;;;;;;;29.63;14.40;;;-0.70;99.90;;;;;;4987954;28;20053;-85
2022/03/04 05:50:52;;;;;;;34.22;15.80;;;-0.70;99.90;;;;;;5015864;28;20053;-85
2022/03/04 05:53:18;;;;;;;30.98;14.15;;;-0.70;99.90;;;;;;4998586;28;20072;-85
2022/03/04 05:55:44;;;;;;;33.40;13.82;;;-0.70;99.90;;;;;;4998585;28;20053;-85
2022/03/04 05:58:10;;;;;;;29.45;11.30;;;-0.80;99.90;;;;;;4998411;28;20057;-85
2022/03/04 06:00:35;;;;;;;28.02;13.07;;;-0.80;99.90;;;;;;4998378;28;20050;-85
2022/03/04 06:03:01;;;;;;;28.70;11.80;;;-0.70;99.90;;;;;;4998506;28;20527;-85
2022/03/04 06:05:27;;;;;;;29.95;14.20;;;-0.70;99.90;;;;;;4998385;28;20559;-85
2022/03/04 06:07:52;;;;;;;41.03;16.35;;;-0.70;99.90;;;;;;4998061;28;20452;-85
2022/03/04 06:10:18;;;;;;;31.85;13.98;;;-0.70;99.90;;;;;;4997874;28;20129;-85
2022/03/04 06:12:43;;;;;;;29.75;13.27;;;-0.70;99.90;;;;;;4998122;28;20053;-85
2022/03/04 06:15:09;;;;;;;32.13;14.30;;;-0.80;99.90;;;;;;4997396;28;20041;-86
2022/03/04 06:17:35;;;;;;;32.47;14.27;;;-0.70;99.90;;;;;;4996289;28;20077;-85
2022/03/04 06:20:01;;;;;;;33.03;14.30;;;-0.80;99.90;;;;;;4997913;28;20085;-85
2022/03/04 06:22:28;;;;;;;32.67;13.65;;;-0.80;99.90;;;;;;4998021;28;20049;-85
2022/03/04 06:24:53;;;;;;;31.40;13.93;;;-0.80;99.90;;;;;;4997679;28;20457;-85
2022/03/04 06:27:19;;;;;;;29.25;12.77;;;-0.80;99.90;;;;;;4997653;28;20052;-85
2022/03/04 06:29:44;;;;;;;29.75;13.70;;;-0.80;99.90;;;;;;4997874;28;20049;-85
2022/03/04 06:32:11;;;;;;;29.73;12.80;;;-0.70;99.90;;;;;;4997410;28;20081;-85
2022/03/04 06:34:37;;;;;;;30.13;11.85;;;-0.70;99.90;;;;;;4997682;28;20056;-85
2022/03/04 06:37:03;;;;;;;25.98;12.85;;;-0.80;99.90;;;;;;4997411;28;20488;-85
2022/03/04 06:39:28;;;;;;;31.50;12.85;;;-0.90;99.90;;;;;;4997666;28;20485;-85
2022/03/04 06:41:54;;;;;;;25.15;11.50;;;-0.80;99.90;;;;;;4996554;28;20081;-85
2022/03/04 06:44:20;;;;;;;33.40;13.57;;;-0.80;99.90;;;;;;4997285;28;20050;-85
2022/03/04 06:46:46;;;;;;;30.73;13.40;;;-0.80;99.90;;;;;;4997041;28;20053;-85
2022/03/04 06:49:12;;;;;;;30.90;14.25;;;-0.80;99.90;;;;;;4996898;28;20100;-85
2022/03/04 06:51:38;;;;;;;29.88;13.70;;;-0.80;99.90;;;;;;4996907;28;20092;-85
2022/03/04 06:54:04;;;;;;;33.05;14.18;;;-0.90;99.90;;;;;;4997345;28;20050;-85
2022/03/04 06:56:30;;;;;;;29.52;14.13;;;-0.80;99.90;;;;;;4997004;28;20401;-85
2022/03/04 06:58:55;;;;;;;34.85;15.27;;;-0.80;99.90;;;;;;4996898;28;20045;-85
2022/03/04 07:01:21;;;;;;;28.48;11.88;;;-0.80;99.90;;;;;;4996900;28;20136;-85
2022/03/04 07:03:47;;;;;;;40.30;17.02;;;-0.80;99.90;;;;;;4996764;28;20042;-85
2022/03/04 07:06:14;;;;;;;30.85;12.77;;;-0.80;99.90;;;;;;4997070;28;20628;-85
2022/03/04 07:08:39;;;;;;;29.20;14.15;;;-0.80;99.90;;;;;;4997068;28;20420;-85
2022/03/04 07:11:05;;;;;;;30.98;13.52;;;-0.70;99.90;;;;;;4996999;28;20096;-86
2022/03/04 07:13:31;;;;;;;29.65;13.40;;;-0.70;99.90;;;;;;4996700;28;20092;-85
2022/03/04 07:15:57;;;;;;;31.98;13.43;;;-0.60;99.90;;;;;;4996826;28;20141;-85
2022/03/04 07:18:23;;;;;;;29.35;12.23;;;-0.70;99.90;;;;;;4996660;28;20468;-85
2022/03/04 07:20:49;;;;;;;28.55;13.00;;;-0.70;99.90;;;;;;4996627;28;20080;-85
2022/03/04 07:23:16;;;;;;;35.72;13.70;;;-0.60;99.90;;;;;;4996591;28;20122;-85
2022/03/04 07:25:42;;;;;;;36.28;15.38;;;-0.70;99.90;;;;;;4996655;28;20082;-85
2022/03/04 07:28:08;;;;;;;28.08;13.38;;;-0.60;99.90;;;;;;4996825;28;20145;-85
2022/03/04 07:30:35;;;;;;;31.83;13.82;;;-0.60;99.90;;;;;;4996470;28;20045;-84
2022/03/04 07:33:02;;;;;;;32.47;13.95;;;-0.60;99.90;;;;;;4996723;28;20049;-83
2022/03/04 07:35:27;;;;;;;33.30;13.73;;;-0.60;99.90;;;;;;4996632;28;20080;-85
2022/03/04 07:37:53;;;;;;;45.60;16.52;;;-0.50;99.90;;;;;;4996440;28;20084;-85
2022/03/04 07:40:19;;;;;;;41.40;15.13;;;-0.50;99.90;;;;;;4996695;28;20046;-84
2022/03/04 07:42:44;;;;;;;48.97;17.25;;;-0.40;99.90;;;;;;4996372;28;20434;-85
2022/03/04 07:45:11;;;;;;;40.88;16.55;;;-0.40;99.90;;;;;;4996543;28;20116;-85
2022/03/04 07:47:38;;;;;;;38.55;15.77;;;-0.40;99.90;;;;;;4996291;28;20037;-84
2022/03/04 07:50:05;;;;;;;38.78;17.60;;;-0.40;99.90;;;;;;4996359;28;20049;-84
2022/03/04 07:52:31;;;;;;;34.70;14.50;;;-0.40;99.90;;;;;;4995979;28;20092;-84
2022/03/04 07:55:01;;;;;;;35.70;15.02;;;-0.40;99.90;;;;;;5013671;28;20128;-83
2022/03/04 07:57:27;;;;;;;43.75;17.17;;;-0.30;99.90;;;;;;4989294;28;20637;-84
2022/03/04 07:59:53;;;;;;;33.17;13.75;;;-0.30;99.90;;;;;;4981355;28;20050;-84
2022/03/04 08:02:19;;;;;;;32.50;13.82;;;-0.20;99.90;;;;;;4976643;28;20045;-83
2022/03/04 08:04:46;;;;;;;29.83;12.63;;;-0.20;99.90;;;;;;4976640;28;20092;-84
2022/03/04 08:07:13;;;;;;;32.03;13.90;;;-0.20;99.90;;;;;;4976583;28;20042;-84
2022/03/04 08:09:39;;;;;;;29.08;13.20;;;-0.20;99.90;;;;;;4976349;28;20051;-84
2022/03/04 08:12:06;;;;;;;34.92;14.13;;;-0.20;99.90;;;;;;4976202;28;20046;-86
2022/03/04 08:14:32;;;;;;;31.35;14.82;;;-0.20;99.90;;;;;;4976484;28;20042;-83
2022/03/04 08:16:57;;;;;;;33.53;14.57;;;-0.20;99.90;;;;;;4976330;28;20053;-85
2022/03/04 08:19:23;;;;;;;41.67;18.65;;;-0.20;99.90;;;;;;4976157;28;20051;-85
2022/03/04 08:21:49;;;;;;;37.85;16.63;;;-0.10;99.90;;;;;;4976568;28;20556;-85
2022/03/04 08:24:14;;;;;;;30.60;12.98;;;-0.10;99.90;;;;;;4976430;28;20046;-87
2022/03/04 08:26:41;;;;;;;36.13;14.50;;;-0.10;99.90;;;;;;4976228;28;20051;-85
2022/03/04 08:29:10;;;;;;;33.17;14.23;;;-0.10;99.90;;;;;;4976413;28;20050;-84
2022/03/04 08:31:37;;;;;;;35.60;15.25;;;0.00;99.90;;;;;;4976234;28;20054;-83
2022/03/04 08:34:03;;;;;;;33.42;14.23;;;0.00;99.90;;;;;;4994168;28;20100;-83
2022/03/04 08:36:29;;;;;;;30.35;14.57;;;0.10;99.90;;;;;;4993995;28;20039;-86
2022/03/04 08:38:55;;;;;;;30.48;13.98;;;0.10;99.90;;;;;;4976276;28;20057;-86
2022/03/04 08:41:21;;;;;;;31.90;14.48;;;0.10;99.90;;;;;;4976212;28;20482;-86
2022/03/04 08:43:47;;;;;;;33.17;13.80;;;0.10;99.90;;;;;;4976202;28;20393;-90
2022/03/04 08:46:14;;;;;;;33.97;15.88;;;0.20;99.90;;;;;;4976054;28;20551;-85
2022/03/04 08:48:43;;;;;;;34.38;14.32;;;0.20;99.90;;;;;;4975848;28;20056;-85
2022/03/04 08:51:09;;;;;;;34.75;15.10;;;0.20;99.90;;;;;;4994650;28;20117;-91
2022/03/04 08:53:35;;;;;;;32.60;15.50;;;0.30;99.90;;;;;;4977071;28;20081;-90
2022/03/04 08:56:03;;;;;;;38.17;16.25;;;0.30;99.90;;;;;;4976146;28;20043;-85
2022/03/04 08:58:29;;;;;;;36.90;16.10;;;0.30;99.90;;;;;;4976133;28;20058;-85
2022/03/04 09:00:54;;;;;;;46.72;17.85;;;0.40;99.90;;;;;;4976145;28;20383;-85
2022/03/04 09:03:20;;;;;;;42.47;18.90;;;0.40;99.90;;;;;;4975839;28;20050;-85
2022/03/04 09:05:46;;;;;;;41.70;17.05;;;0.50;99.90;;;;;;4979231;28;20489;-86
2022/03/04 09:08:12;;;;;;;43.15;18.02;;;0.50;99.90;;;;;;4979466;28;20034;-85
2022/03/04 09:10:38;;;;;;;40.70;16.52;;;0.60;99.90;;;;;;4980313;28;20042;-95
2022/03/04 09:13:04;;;;;;;33.97;15.13;;;0.70;99.90;;;;;;4979495;28;20050;-85
2022/03/04 09:15:31;;;;;;;38.45;16.92;;;0.70;99.90;;;;;;4979452;28;20387;-88
2022/03/04 09:17:56;;;;;;;37.33;15.77;;;0.80;99.90;;;;;;4979571;28;20042;-88
2022/03/04 09:20:22;;;;;;;32.08;15.25;;;0.90;99.90;;;;;;4979332;28;20042;-85
2022/03/04 09:22:48;;;;;;;32.90;14.38;;;1.10;99.90;;;;;;4996647;28;20042;-83
2022/03/04 09:25:14;;;;;;;32.78;15.90;;;1.30;99.90;;;;;;4979295;28;20050;-84
2022/03/04 09:27:46;;;;;;;31.52;14.65;;;1.30;99.90;;;;;;4979341;28;20489;-86
2022/03/04 09:30:12;;;;;;;32.53;15.03;;;1.20;99.90;;;;;;5023490;28;20046;-84
2022/03/04 09:32:39;;;;;;;30.13;13.85;;;1.30;99.90;;;;;;5014649;28;20296;-84
2022/03/04 09:37:41;;;;;;;27.90;13.88;;;1.40;99.90;;;;;;5023426;26;20114;-82
2022/03/04 09:40:08;;;;;;;30.33;15.25;;;1.40;99.90;;;;;;5009725;28;20049;-82
2022/03/04 09:42:34;;;;;;;28.85;14.32;;;1.40;99.90;;;;;;5017077;28;20104;-84
2022/03/04 09:45:01;;;;;;;33.40;14.68;;;1.40;99.90;;;;;;5018377;28;20067;-86
2022/03/04 09:47:28;;;;;;;29.92;13.82;;;1.60;99.90;;;;;;4999539;28;20048;-84
2022/03/04 09:49:54;;;;;;;26.33;11.50;;;1.80;99.90;;;;;;5003703;28;20096;-85
2022/03/04 09:52:20;;;;;;;23.73;12.02;;;1.90;99.90;;;;;;5016475;28;20116;-84
2022/03/04 09:54:50;;;;;;;25.58;12.55;;;1.90;99.90;;;;;;5016577;28;20041;-85
2022/03/04 09:57:16;;;;;;;26.98;13.95;;;2.00;99.90;;;;;;5035340;28;20045;-82
2022/03/04 09:59:43;;;;;;;27.25;12.70;;;2.20;99.90;;;;;;5017888;28;20042;-83
2022/03/04 10:02:13;;;;;;;23.10;12.73;;;2.30;99.90;;;;;;5035348;28;20037;-84
2022/03/04 10:04:40;;;;;;;23.55;12.20;;;2.30;99.90;;;;;;5015938;28;20081;-86
2022/03/04 10:07:14;;;;;;;28.20;13.98;;;2.50;99.90;;;;;;4997960;28;20489;-85
2022/03/04 10:09:43;;;;;;;29.02;13.90;;;2.50;99.90;;;;;;4999486;28;20125;-85
2022/03/04 10:12:10;;;;;;;26.17;13.75;;;2.50;99.90;;;;;;5016327;28;20048;-85
2022/03/04 10:15:00;;;;;;;30.10;12.80;;;2.80;99.90;;;;;;5016543;28;20053;-91
2022/03/04 10:17:26;;;;;;;23.00;13.13;;;2.90;99.90;;;;;;5017186;28;20492;-88
2022/03/04 10:19:57;;;;;;;25.25;12.85;;;2.90;99.90;;;;;;4998006;28;20046;-88
2022/03/04 10:22:35;;;;;;;24.65;11.90;;;3.10;99.90;;;;;;5002695;28;20037;-86
2022/03/04 10:25:01;;;;;;;21.42;12.55;;;3.20;99.90;;;;;;5017436;28;20389;-86
2022/03/04 10:27:33;;;;;;;24.55;12.32;;;3.40;99.90;;;;;;5016970;28;20037;-86
2022/03/04 10:29:59;;;;;;;20.27;11.05;;;3.60;99.90;;;;;;5017610;28;20037;-86
2022/03/04 10:32:26;;;;;;;26.10;12.82;;;3.90;99.90;;;;;;5016930;28;20401;-83
2022/03/04 10:34:59;;;;;;;20.23;10.40;;;4.10;99.90;;;;;;5016900;28;20042;-84
2022/03/04 10:37:48;;;;;;;20.45;10.48;;;4.10;99.90;;;;;;5008533;28;20133;-84
2022/03/04 10:40:25;;;;;;;22.90;11.20;;;4.30;99.90;;;;;;4998323;28;20045;-87
2022/03/04 10:43:02;;;;;;;22.95;11.43;;;4.40;99.90;;;;;;4997325;28;20058;-86
2022/03/04 10:45:35;;;;;;;17.73;9.55;;;4.60;99.90;;;;;;4997368;28;20104;-85
2022/03/04 10:48:00;;;;;;;20.30;11.18;;;4.70;99.90;;;;;;4992807;28;20494;-92
2022/03/04 10:50:35;;;;;;;18.25;10.63;;;4.90;99.90;;;;;;4977598;28;20042;-86
2022/03/04 10:53:05;;;;;;;20.40;10.73;;;5.00;99.90;;;;;;4994980;28;20042;-84
2022/03/04 10:55:33;;;;;;;20.98;9.55;;;5.00;99.90;;;;;;4977509;28;20050;-88
2022/03/04 10:58:01;;;;;;;17.95;10.98;;;5.20;99.90;;;;;;4977399;28;20462;-85
2022/03/04 11:00:36;;;;;;;19.08;10.45;;;5.30;99.90;;;;;;4977343;28;20430;-84
2022/03/04 11:03:05;;;;;;;19.70;10.73;;;5.40;99.90;;;;;;4977261;28;20045;-84
2022/03/04 11:05:31;;;;;;;17.20;9.63;;;5.50;99.90;;;;;;5001202;28;20128;-84
2022/03/04 11:07:58;;;;;;;18.42;11.13;;;5.50;99.90;;;;;;4977590;28;20042;-85
2022/03/04 11:10:25;;;;;;;16.73;9.75;;;5.70;99.90;;;;;;4977545;28;20449;-85
2022/03/04 11:12:53;;;;;;;15.93;9.13;;;5.80;99.90;;;;;;4977383;28;20073;-86
2022/03/04 11:15:20;;;;;;;16.27;9.15;;;5.90;99.90;;;;;;4978866;28;20050;-95
2022/03/04 11:17:46;;;;;;;17.13;9.65;;;5.90;99.90;;;;;;4978612;28;20076;-84
2022/03/04 11:20:13;;;;;;;15.75;9.30;;;5.90;99.90;;;;;;4977321;28;20581;-83
2022/03/04 11:22:41;;;;;;;14.85;8.93;;;6.10;99.90;;;;;;4995422;28;20041;-83
2022/03/04 11:25:14;;;;;;;15.57;9.38;;;6.20;99.90;;;;;;5016559;28;20041;-84
2022/03/04 11:27:46;;;;;;;16.40;10.25;;;6.30;99.90;;;;;;5015593;28;20045;-85
2022/03/04 11:30:30;;;;;;;16.45;9.38;;;6.40;99.90;;;;;;5015706;28;20120;-84
2022/03/04 11:33:25;;;;;;;15.93;9.18;;;6.40;99.90;;;;;;5016217;28;20485;-85
2022/03/04 11:35:51;;;;;;;16.77;9.20;;;6.60;99.90;;;;;;5015662;28;20089;-84
2022/03/04 11:38:48;;;;;;;15.77;8.55;;;6.70;99.90;;;;;;5016115;28;20080;-83
2022/03/04 11:41:18;;;;;;;17.65;10.05;;;6.70;99.90;;;;;;5015574;28;20041;-83
2022/03/04 11:43:49;;;;;;;17.27;9.63;;;6.80;99.90;;;;;;5015873;28;20120;-90
2022/03/04 11:46:22;;;;;;;14.77;8.82;;;6.90;99.90;;;;;;5003578;28;20042;-82
2022/03/04 11:49:28;;;;;;;14.23;8.80;;;6.90;99.90;;;;;;4996181;28;20132;-82
2022/03/04 11:52:09;;;;;;;14.45;8.18;;;7.00;99.90;;;;;;4982309;28;20072;-82
2022/03/04 11:54:49;;;;;;;15.68;9.38;;;6.90;99.90;;;;;;4996056;28;20050;-82
2022/03/04 11:57:20;;;;;;;16.65;8.68;;;7.00;99.90;;;;;;4996101;28;20073;-83
2022/03/04 11:59:58;;;;;;;13.95;8.32;;;7.20;99.90;;;;;;4996156;28;20049;-82
2022/03/04 12:02:37;;;;;;;15.20;8.27;;;7.30;99.90;;;;;;4996168;28;20049;-83
2022/03/04 12:05:17;;;;;;;14.88;9.18;;;7.30;99.90;;;;;;4996095;28;20081;-83
2022/03/04 12:07:45;;;;;;;16.05;9.57;;;7.30;99.90;;;;;;4995803;28;20129;-83
2022/03/04 12:10:13;;;;;;;16.65;8.88;;;7.30;99.90;;;;;;4995715;28;20038;-82
2022/03/04 12:12:39;;;;;;;17.17;9.48;;;7.30;99.90;;;;;;4996030;28;20038;-83
2022/03/04 12:15:17;;;;;;;14.60;8.90;;;7.40;99.90;;;;;;4995782;28;20477;-83
2022/03/04 12:17:59;;;;;;;13.13;8.85;;;7.50;99.90;;;;;;4995959;28;20046;-82
2022/03/04 12:20:52;;;;;;;15.77;8.15;;;7.50;99.90;;;;;;4995991;28;20505;-81
2022/03/04 12:23:26;;;;;;;16.40;8.55;;;7.40;99.90;;;;;;4985644;28;20050;-81
2022/03/04 12:25:52;;;;;;;17.30;9.70;;;7.60;99.90;;;;;;4995883;28;20064;-85
2022/03/04 12:28:41;;;;;;;15.70;8.68;;;7.60;99.90;;;;;;4995596;28;20041;-82
2022/03/04 12:31:18;;;;;;;16.95;9.27;;;7.60;99.90;;;;;;5006175;28;20128;-82
2022/03/04 12:33:52;;;;;;;14.73;8.50;;;7.60;99.90;;;;;;5015608;28;20053;-83
2022/03/04 12:36:18;;;;;;;14.75;8.90;;;7.80;99.90;;;;;;5015269;28;20057;-83
2022/03/04 12:39:04;;;;;;;15.15;9.27;;;7.80;99.90;;;;;;5015412;28;20452;-88
2022/03/04 12:41:33;;;;;;;15.07;8.10;;;7.70;99.90;;;;;;5018954;28;20493;-89
2022/03/04 12:44:05;;;;;;;14.13;8.60;;;7.80;99.90;;;;;;5019019;28;20592;-80
2022/03/04 12:46:37;;;;;;;17.35;9.70;;;7.90;99.90;;;;;;5019534;28;20045;-90
2022/03/04 12:49:04;;;;;;;14.40;8.57;;;8.00;99.90;;;;;;5019301;28;20138;-80
2022/03/04 12:51:32;;;;;;;16.05;9.27;;;8.00;99.90;;;;;;5018900;28;20064;-80
2022/03/04 12:54:08;;;;;;;16.77;10.20;;;7.90;99.90;;;;;;5019041;28;20096;-87
2022/03/04 12:56:34;;;;;;;19.27;9.50;;;7.80;99.90;;;;;;5019027;28;20045;-83
2022/03/04 12:59:02;;;;;;;15.95;9.80;;;7.90;99.90;;;;;;5018771;28;20396;-83
2022/03/04 13:01:30;;;;;;;15.90;9.82;;;8.00;99.90;;;;;;5018894;28;20037;-83
2022/03/04 13:04:05;;;;;;;16.08;10.60;;;7.90;99.90;;;;;;5018511;28;20042;-81
2022/03/04 13:06:31;;;;;;;19.50;10.55;;;8.00;99.90;;;;;;5036505;28;20396;-82
2022/03/04 13:08:59;;;;;;;19.40;10.52;;;8.10;99.90;;;;;;5018553;28;20496;-82
2022/03/04 13:11:34;;;;;;;20.08;10.35;;;8.00;99.90;;;;;;5018546;28;20052;-82
2022/03/04 13:14:09;;;;;;;18.05;10.63;;;8.00;99.90;;;;;;5018448;28;20050;-87
2022/03/04 13:16:48;;;;;;;19.20;11.07;;;7.90;99.90;;;;;;5018519;28;20057;-85
2022/03/04 13:19:18;;;;;;;18.00;10.27;;;8.10;99.90;;;;;;5019733;28;20045;-92
2022/03/04 13:21:48;;;;;;;20.10;10.80;;;8.10;99.90;;;;;;5018745;28;20041;-85
2022/03/04 13:24:15;;;;;;;20.10;11.48;;;8.10;99.90;;;;;;5018592;28;20132;-87
2022/03/04 13:26:53;;;;;;;16.23;10.10;;;8.00;99.90;;;;;;5018215;28;20128;-84
2022/03/04 13:29:20;;;;;;;19.70;11.98;;;8.10;99.90;;;;;;5018114;28;20412;-83
2022/03/04 13:31:46;;;;;;;18.17;10.52;;;8.00;99.90;;;;;;5018092;28;20049;-82
2022/03/04 13:34:14;;;;;;;19.08;11.25;;;8.10;99.90;;;;;;5017970;28;20091;-83
2022/03/04 13:36:44;;;;;;;18.85;10.80;;;8.10;99.90;;;;;;5018039;28;20133;-83
2022/03/04 13:39:13;;;;;;;22.13;12.77;;;8.20;99.90;;;;;;5018185;28;20045;-84
2022/03/04 13:41:40;;;;;;;21.65;12.35;;;8.20;99.90;;;;;;5018207;28;20042;-82
2022/03/04 13:44:13;;;;;;;20.98;11.75;;;8.20;99.90;;;;;;5017802;28;20129;-85
2022/03/04 13:47:21;;;;;;;19.70;11.27;;;8.20;99.90;;;;;;5018165;28;20085;-83
2022/03/04 13:49:49;;;;;;;19.63;11.20;;;8.30;99.90;;;;;;5016798;28;20064;-83
2022/03/04 13:52:16;;;;;;;20.30;10.80;;;8.20;99.90;;;;;;5018839;28;20132;-78
2022/03/04 13:55:02;;;;;;;18.77;10.52;;;8.30;99.90;;;;;;5017740;28;20408;-84
2022/03/04 13:57:38;;;;;;;19.55;10.80;;;8.30;99.90;;;;;;5017620;28;20137;-85
2022/03/04 14:00:09;;;;;;;17.70;10.43;;;8.30;99.90;;;;;;5017561;28;20037;-82
2022/03/04 14:02:42;;;;;;;18.23;10.63;;;8.20;99.90;;;;;;5006951;28;20394;-89
2022/03/04 14:05:09;;;;;;;;;;;8.20;99.90;;;;;;4998286;28;20046;-82
2022/03/04 14:07:46;;;;;;;17.20;10.10;;;8.20;99.90;;;;;;4997879;28;19972;-85
2022/03/04 14:10:18;;;;;;;18.15;10.45;;;8.30;99.90;;;;;;4997990;28;20077;-83